« Back
NWS Peachtree City, Ga » Text Product » MCN Terminal Aerodrome Forecast


Printer-friendly Version
Current Version              Previous Versions:   1  2  3  4  5  6  7  8  9  

Terminal Aerodrome Forecast

658
FTUS42 KFFC 010813 AAA
TAFMCN
TAF AMD
KMCN 010813Z 0108/0206 00000KT P6SM BKN012
     FM011000 00000KT 5SM BR BKN008
     FM011400 24004KT P6SM FEW040
     FM011800 22005KT P6SM SCT050
     FM012300 19003KT P6SM FEW250
     FM020200 00000KT P6SM FEW250=

USA.gov is the U.S. government's official web portal to all federal, state and local government web resources and services.